sensor_id;sensor_type;location;lat;lon;timestamp;pressure;altitude;pressure_sealevel;temperature;humidity
83633;BME280;73595;53.084;6.696;2024-01-10T00:02:08;103544.81;;;-5.37;90.90
83633;BME280;73595;53.084;6.696;2024-01-10T00:04:34;103475.94;;;-5.83;91.25
83633;BME280;73595;53.084;6.696;2024-01-10T00:06:59;103542.25;;;-5.59;91.20
83633;BME280;73595;53.084;6.696;2024-01-10T00:09:24;103497.47;;;-5.85;91.29
83633;BME280;73595;53.084;6.696;2024-01-10T00:11:51;103548.25;;;-5.51;90.86
83633;BME280;73595;53.084;6.696;2024-01-10T00:14:16;103517.28;;;-5.72;90.82
83633;BME280;73595;53.084;6.696;2024-01-10T00:16:42;103526.75;;;-5.71;91.15
83633;BME280;73595;53.084;6.696;2024-01-10T00:19:09;103532.78;;;-5.66;91.57
83633;BME280;73595;53.084;6.696;2024-01-10T00:21:34;103504.34;;;-5.81;91.27
83633;BME280;73595;53.084;6.696;2024-01-10T00:24:01;103535.34;;;-5.67;91.44
83633;BME280;73595;53.084;6.696;2024-01-10T00:26:27;103510.38;;;-5.82;91.73
83633;BME280;73595;53.084;6.696;2024-01-10T00:28:53;103517.28;;;-5.78;91.46
83633;BME280;73595;53.084;6.696;2024-01-10T00:31:18;103509.53;;;-5.84;91.36
83633;BME280;73595;53.084;6.696;2024-01-10T00:33:44;103498.31;;;-5.89;91.33
83633;BME280;73595;53.084;6.696;2024-01-10T00:36:09;103514.66;;;-5.80;91.18
83633;BME280;73595;53.084;6.696;2024-01-10T00:38:36;103513.81;;;-5.74;91.37
83633;BME280;73595;53.084;6.696;2024-01-10T00:41:02;103413.16;;;-6.37;90.76
83633;BME280;73595;53.084;6.696;2024-01-10T00:43:28;103523.31;;;-5.73;91.24
83633;BME280;73595;53.084;6.696;2024-01-10T00:45:53;103525.88;;;-5.70;91.19
83633;BME280;73595;53.084;6.696;2024-01-10T00:48:18;103519.00;;;-5.73;91.50
83633;BME280;73595;53.084;6.696;2024-01-10T00:50:44;103508.66;;;-5.77;91.64
83633;BME280;73595;53.084;6.696;2024-01-10T00:53:09;103506.06;;;-5.80;91.80
83633;BME280;73595;53.084;6.696;2024-01-10T00:55:35;103516.41;;;-5.71;91.81
83633;BME280;73595;53.084;6.696;2024-01-10T00:58:00;103518.97;;;-5.62;91.47
83633;BME280;73595;53.084;6.696;2024-01-10T01:00:26;103351.22;;;-6.52;91.38
83633;BME280;73595;53.084;6.696;2024-01-10T01:02:52;103502.63;;;-5.61;91.09
83633;BME280;73595;53.084;6.696;2024-01-10T01:05:19;103504.34;;;-5.57;90.60
83633;BME280;73595;53.084;6.696;2024-01-10T01:07:44;103481.97;;;-5.76;90.46
83633;BME280;73595;53.084;6.696;2024-01-10T01:10:10;103466.50;;;-5.85;90.78
83633;BME280;73595;53.084;6.696;2024-01-10T01:12:35;103510.38;;;-5.72;90.93
83633;BME280;73595;53.084;6.696;2024-01-10T01:15:01;103490.59;;;-5.73;90.57
83633;BME280;73595;53.084;6.696;2024-01-10T01:17:26;103482.00;;;-5.79;90.84
83633;BME280;73595;53.084;6.696;2024-01-10T01:19:52;103509.53;;;-5.70;91.10
83633;BME280;73595;53.084;6.696;2024-01-10T01:22:17;103431.22;;;-6.12;91.42
83633;BME280;73595;53.084;6.696;2024-01-10T01:24:43;103498.34;;;-5.65;91.12
83633;BME280;73595;53.084;6.696;2024-01-10T01:27:08;103512.13;;;-5.54;90.83
83633;BME280;73595;53.084;6.696;2024-01-10T01:29:34;103486.28;;;-5.69;90.78
83633;BME280;73595;53.084;6.696;2024-01-10T01:31:59;103498.31;;;-5.62;90.74
83633;BME280;73595;53.084;6.696;2024-01-10T01:34:24;103500.06;;;-5.72;90.45
83633;BME280;73595;53.084;6.696;2024-01-10T01:36:50;103480.25;;;-5.76;90.58
83633;BME280;73595;53.084;6.696;2024-01-10T01:39:17;103494.03;;;-5.70;90.00
83633;BME280;73595;53.084;6.696;2024-01-10T01:41:43;103500.94;;;-5.73;89.85
83633;BME280;73595;53.084;6.696;2024-01-10T01:44:10;103513.84;;;-5.73;90.15
83633;BME280;73595;53.084;6.696;2024-01-10T01:46:36;103499.19;;;-5.81;90.30
83633;BME280;73595;53.084;6.696;2024-01-10T01:49:03;103512.94;;;-5.81;90.35
83633;BME280;73595;53.084;6.696;2024-01-10T01:51:32;103518.13;;;-5.82;90.58
83633;BME280;73595;53.084;6.696;2024-01-10T01:54:00;103510.38;;;-5.84;90.92
83633;BME280;73595;53.084;6.696;2024-01-10T01:56:25;103512.94;;;-5.82;90.41
83633;BME280;73595;53.084;6.696;2024-01-10T01:58:53;103484.56;;;-5.85;90.72
83633;BME280;73595;53.084;6.696;2024-01-10T02:01:21;103352.91;;;-6.74;91.12
83633;BME280;73595;53.084;6.696;2024-01-10T02:03:47;103416.56;;;-6.32;91.62
83633;BME280;73595;53.084;6.696;2024-01-10T02:06:13;103511.22;;;-5.80;91.79
83633;BME280;73595;53.084;6.696;2024-01-10T02:08:38;103505.22;;;-5.79;91.51
83633;BME280;73595;53.084;6.696;2024-01-10T02:11:04;103502.66;;;-5.73;91.71
83633;BME280;73595;53.084;6.696;2024-01-10T02:13:31;103495.75;;;-5.76;91.34
83633;BME280;73595;53.084;6.696;2024-01-10T02:15:58;103503.50;;;-5.77;91.82
83633;BME280;73595;53.084;6.696;2024-01-10T02:18:24;103496.63;;;-5.78;91.40
83633;BME280;73595;53.084;6.696;2024-01-10T02:20:50;103507.78;;;-5.81;92.24
83633;BME280;73595;53.084;6.696;2024-01-10T02:23:17;103492.31;;;-5.79;91.62
83633;BME280;73595;53.084;6.696;2024-01-10T02:25:42;103500.03;;;-5.76;92.02
83633;BME280;73595;53.084;6.696;2024-01-10T02:28:07;103494.88;;;-5.76;92.04
83633;BME280;73595;53.084;6.696;2024-01-10T02:30:34;103406.28;;;-6.30;91.90
83633;BME280;73595;53.084;6.696;2024-01-10T02:33:00;103488.00;;;-5.76;91.58
83633;BME280;73595;53.084;6.696;2024-01-10T02:35:26;103494.88;;;-5.78;91.98
83633;BME280;73595;53.084;6.696;2024-01-10T02:37:54;103479.38;;;-5.88;91.91
83633;BME280;73595;53.084;6.696;2024-01-10T02:40:22;103476.84;;;-5.91;91.84
83633;BME280;73595;53.084;6.696;2024-01-10T02:42:48;103465.66;;;-5.95;91.65
83633;BME280;73595;53.084;6.696;2024-01-10T02:45:13;103460.50;;;-6.04;92.33
83633;BME280;73595;53.084;6.696;2024-01-10T02:47:39;103474.22;;;-5.88;92.16
83633;BME280;73595;53.084;6.696;2024-01-10T02:50:05;103472.50;;;-5.82;92.23
83633;BME280;73595;53.084;6.696;2024-01-10T02:52:32;103477.66;;;-5.82;91.83
83633;BME280;73595;53.084;6.696;2024-01-10T02:54:59;103402.84;;;-6.29;91.88
83633;BME280;73595;53.084;6.696;2024-01-10T02:57:24;103475.09;;;-5.82;91.96
83633;BME280;73595;53.084;6.696;2024-01-10T02:59:49;103479.38;;;-5.82;91.97
83633;BME280;73595;53.084;6.696;2024-01-10T03:02:15;103467.34;;;-5.83;92.13
83633;BME280;73595;53.084;6.696;2024-01-10T03:04:41;103415.72;;;-6.18;92.21
83633;BME280;73595;53.084;6.696;2024-01-10T03:07:07;103465.63;;;-5.84;91.90
83633;BME280;73595;53.084;6.696;2024-01-10T03:09:32;103460.47;;;-5.86;91.70
83633;BME280;73595;53.084;6.696;2024-01-10T03:11:58;103480.25;;;-5.85;91.81
83633;BME280;73595;53.084;6.696;2024-01-10T03:14:23;103405.41;;;-6.32;91.54
83633;BME280;73595;53.084;6.696;2024-01-10T03:16:49;103468.25;;;-5.96;91.63
83633;BME280;73595;53.084;6.696;2024-01-10T03:19:14;103454.47;;;-6.02;91.94
83633;BME280;73595;53.084;6.696;2024-01-10T03:21:40;103458.75;;;-5.88;91.54
83633;BME280;73595;53.084;6.696;2024-01-10T03:24:07;103472.50;;;-5.88;91.41
83633;BME280;73595;53.084;6.696;2024-01-10T03:26:32;103469.09;;;-5.85;91.22
83633;BME280;73595;53.084;6.696;2024-01-10T03:28:57;103468.22;;;-5.90;91.30
83633;BME280;73595;53.084;6.696;2024-01-10T03:31:26;103450.16;;;-6.04;91.29
83633;BME280;73595;53.084;6.696;2024-01-10T03:33:51;103458.75;;;-6.01;91.40
83633;BME280;73595;53.084;6.696;2024-01-10T03:36:17;103463.94;;;-5.96;91.28
83633;BME280;73595;53.084;6.696;2024-01-10T03:38:43;103453.59;;;-5.93;90.87
83633;BME280;73595;53.084;6.696;2024-01-10T03:41:19;103376.16;;;-6.31;90.09
83633;BME280;73595;53.084;6.696;2024-01-10T03:43:45;103434.69;;;-6.04;90.14
83633;BME280;73595;53.084;6.696;2024-01-10T03:46:11;103445.00;;;-5.98;89.76
83633;BME280;73595;53.084;6.696;2024-01-10T03:48:37;103431.22;;;-6.08;89.67
83633;BME280;73595;53.084;6.696;2024-01-10T03:51:16;103440.69;;;-6.02;89.41
83633;BME280;73595;53.084;6.696;2024-01-10T03:53:42;103437.25;;;-6.06;89.99
83633;BME280;73595;53.084;6.696;2024-01-10T03:56:10;103440.69;;;-6.02;89.55
83633;BME280;73595;53.084;6.696;2024-01-10T03:58:36;103434.66;;;-6.00;89.92
83633;BME280;73595;53.084;6.696;2024-01-10T04:01:06;103438.13;;;-5.91;89.69
83633;BME280;73595;53.084;6.696;2024-01-10T04:03:33;103440.66;;;-5.88;89.89
83633;BME280;73595;53.084;6.696;2024-01-10T04:05:58;103426.91;;;-5.90;89.97
83633;BME280;73595;53.084;6.696;2024-01-10T04:08:25;103435.53;;;-5.79;90.25
83633;BME280;73595;53.084;6.696;2024-01-10T04:10:51;103267.84;;;-6.83;90.41
83633;BME280;73595;53.084;6.696;2024-01-10T04:13:18;103444.13;;;-5.77;90.41
83633;BME280;73595;53.084;6.696;2024-01-10T04:15:44;103438.94;;;-5.83;90.39
83633;BME280;73595;53.084;6.696;2024-01-10T04:18:09;103418.34;;;-6.02;90.64
83633;BME280;73595;53.084;6.696;2024-01-10T04:20:36;103415.75;;;-5.91;90.75
83633;BME280;73595;53.084;6.696;2024-01-10T04:23:01;103432.06;;;-5.84;90.40
83633;BME280;73595;53.084;6.696;2024-01-10T04:25:27;103439.81;;;-5.84;90.91
83633;BME280;73595;53.084;6.696;2024-01-10T04:27:53;103420.03;;;-5.88;90.95
83633;BME280;73595;53.084;6.696;2024-01-10T04:30:20;103414.03;;;-5.96;90.95
83633;BME280;73595;53.084;6.696;2024-01-10T04:32:46;103436.34;;;-5.86;91.29
83633;BME280;73595;53.084;6.696;2024-01-10T04:35:11;103438.97;;;-6.00;91.25
83633;BME280;73595;53.084;6.696;2024-01-10T04:37:37;103436.38;;;-6.08;91.12
83633;BME280;73595;53.084;6.696;2024-01-10T04:40:06;103414.88;;;-6.16;91.41
83633;BME280;73595;53.084;6.696;2024-01-10T04:42:33;103431.25;;;-5.95;91.31
83633;BME280;73595;53.084;6.696;2024-01-10T04:44:59;103281.59;;;-6.78;91.55
83633;BME280;73595;53.084;6.696;2024-01-10T04:47:28;103440.72;;;-5.91;91.49
83633;BME280;73595;53.084;6.696;2024-01-10T04:49:53;103438.94;;;-5.83;91.77
83633;BME280;73595;53.084;6.696;2024-01-10T04:52:19;103409.75;;;-5.97;91.66
83633;BME280;73595;53.084;6.696;2024-01-10T04:54:44;103429.47;;;-5.75;91.44
83633;BME280;73595;53.084;6.696;2024-01-10T04:57:10;103435.53;;;-5.73;91.55
83633;BME280;73595;53.084;6.696;2024-01-10T04:59:37;103426.06;;;-5.73;91.33
83633;BME280;73595;53.084;6.696;2024-01-10T05:02:02;103427.78;;;-5.78;91.16
83633;BME280;73595;53.084;6.696;2024-01-10T05:04:28;103432.94;;;-5.78;91.15
83633;BME280;73595;53.084;6.696;2024-01-10T05:06:53;103422.59;;;-5.76;91.72
83633;BME280;73595;53.084;6.696;2024-01-10T05:09:18;103420.00;;;-5.70;91.54
83633;BME280;73595;53.084;6.696;2024-01-10T05:11:44;103407.97;;;-5.79;91.42
83633;BME280;73595;53.084;6.696;2024-01-10T05:14:14;103414.00;;;-5.72;91.96
83633;BME280;73595;53.084;6.696;2024-01-10T05:16:41;103407.09;;;-5.67;91.09
83633;BME280;73595;53.084;6.696;2024-01-10T05:19:07;103418.28;;;-5.69;91.64
83633;BME280;73595;53.084;6.696;2024-01-10T05:21:34;103416.56;;;-5.67;91.65
83633;BME280;73595;53.084;6.696;2024-01-10T05:23:59;103405.38;;;-5.66;91.04
83633;BME280;73595;53.084;6.696;2024-01-10T05:26:24;103375.28;;;-5.86;91.51
83633;BME280;73595;53.084;6.696;2024-01-10T05:28:51;103370.09;;;-5.87;91.26
83633;BME280;73595;53.084;6.696;2024-01-10T05:31:17;103364.13;;;-5.94;91.30
83633;BME280;73595;53.084;6.696;2024-01-10T05:33:42;103400.22;;;-5.77;91.58
83633;BME280;73595;53.084;6.696;2024-01-10T05:36:08;103411.41;;;-5.75;91.61
83633;BME280;73595;53.084;6.696;2024-01-10T05:38:37;103401.97;;;-5.93;91.61
83633;BME280;73595;53.084;6.696;2024-01-10T05:41:04;103408.84;;;-5.90;91.55
83633;BME280;73595;53.084;6.696;2024-01-10T05:43:29;103419.16;;;-5.84;91.78
83633;BME280;73595;53.084;6.696;2024-01-10T05:45:56;103402.81;;;-5.82;91.92
83633;BME280;73595;53.084;6.696;2024-01-10T05:48:22;103327.16;;;-6.27;91.25
83633;BME280;73595;53.084;6.696;2024-01-10T05:50:47;103404.53;;;-5.76;91.23
83633;BME280;73595;53.084;6.696;2024-01-10T05:53:13;103405.38;;;-5.77;91.17
83633;BME280;73595;53.084;6.696;2024-01-10T05:55:42;103394.22;;;-5.78;90.81
83633;BME280;73595;53.084;6.696;2024-01-10T05:58:08;103410.56;;;-5.77;91.24
83633;BME280;73595;53.084;6.696;2024-01-10T06:00:34;103383.88;;;-5.90;90.96
83633;BME280;73595;53.084;6.696;2024-01-10T06:03:00;103393.38;;;-5.93;91.15
83633;BME280;73595;53.084;6.696;2024-01-10T06:05:28;103412.28;;;-5.84;91.09
83633;BME280;73595;53.084;6.696;2024-01-10T06:07:53;103412.25;;;-5.81;91.11
83633;BME280;73595;53.084;6.696;2024-01-10T06:10:25;103409.72;;;-5.79;91.45
83633;BME280;73595;53.084;6.696;2024-01-10T06:12:50;103401.97;;;-5.73;90.81
83633;BME280;73595;53.084;6.696;2024-01-10T06:15:15;103399.38;;;-5.73;90.87
83633;BME280;73595;53.084;6.696;2024-01-10T06:17:42;103401.06;;;-5.69;90.50
83633;BME280;73595;53.084;6.696;2024-01-10T06:20:08;103404.53;;;-5.70;90.44
83633;BME280;73595;53.084;6.696;2024-01-10T06:22:34;103371.91;;;-5.92;91.17
83633;BME280;73595;53.084;6.696;2024-01-10T06:25:01;103386.50;;;-5.96;91.12
83633;BME280;73595;53.084;6.696;2024-01-10T06:27:26;103317.72;;;-6.40;91.14
83633;BME280;73595;53.084;6.696;2024-01-10T06:29:53;103399.38;;;-5.85;90.99
83633;BME280;73595;53.084;6.696;2024-01-10T06:32:19;103410.53;;;-5.80;91.19
83633;BME280;73595;53.084;6.696;2024-01-10T06:34:44;103415.72;;;-5.85;90.99
83633;BME280;73595;53.084;6.696;2024-01-10T06:37:10;103408.84;;;-5.89;91.30
83633;BME280;73595;53.084;6.696;2024-01-10T06:39:37;103392.53;;;-5.95;91.23
83633;BME280;73595;53.084;6.696;2024-01-10T06:42:02;103413.13;;;-5.86;91.09
83633;BME280;73595;53.084;6.696;2024-01-10T06:44:31;103411.44;;;-5.90;90.86
83633;BME280;73595;53.084;6.696;2024-01-10T06:46:56;103394.25;;;-5.97;90.47
83633;BME280;73595;53.084;6.696;2024-01-10T06:49:24;103371.88;;;-6.14;90.53
83633;BME280;73595;53.084;6.696;2024-01-10T06:51:50;103401.94;;;-5.88;90.26
83633;BME280;73595;53.084;6.696;2024-01-10T06:54:16;103416.59;;;-5.86;90.31
83633;BME280;73595;53.084;6.696;2024-01-10T06:56:43;103351.25;;;-6.26;90.29
83633;BME280;73595;53.084;6.696;2024-01-10T06:59:11;103390.81;;;-6.03;90.29
83633;BME280;73595;53.084;6.696;2024-01-10T07:01:38;103389.97;;;-5.98;90.14
83633;BME280;73595;53.084;6.696;2024-01-10T07:04:05;103392.53;;;-5.94;90.10
83633;BME280;73595;53.084;6.696;2024-01-10T07:06:31;103423.44;;;-5.74;89.62
83633;BME280;73595;53.084;6.696;2024-01-10T07:08:57;103414.84;;;-5.75;89.85
83633;BME280;73595;53.084;6.696;2024-01-10T07:11:23;103411.41;;;-5.75;89.43
83633;BME280;73595;53.084;6.696;2024-01-10T07:13:49;103426.88;;;-5.74;89.75
83633;BME280;73595;53.084;6.696;2024-01-10T07:16:15;103414.84;;;-5.82;89.61
83633;BME280;73595;53.084;6.696;2024-01-10T07:18:41;103401.97;;;-5.84;89.61
83633;BME280;73595;53.084;6.696;2024-01-10T07:21:06;103401.09;;;-5.86;89.56
83633;BME280;73595;53.084;6.696;2024-01-10T07:23:34;103405.41;;;-5.85;89.12
83633;BME280;73595;53.084;6.696;2024-01-10T07:26:01;103407.13;;;-5.82;88.69
83633;BME280;73595;53.084;6.696;2024-01-10T07:28:28;103432.94;;;-5.73;88.63
83633;BME280;73595;53.084;6.696;2024-01-10T07:30:53;103419.16;;;-5.70;87.71
83633;BME280;73595;53.084;6.696;2024-01-10T07:33:19;103258.41;;;-6.78;87.32
83633;BME280;73595;53.084;6.696;2024-01-10T07:35:45;103427.75;;;-5.75;88.38
83633;BME280;73595;53.084;6.696;2024-01-10T07:38:10;103414.00;;;-5.86;87.83
83633;BME280;73595;53.084;6.696;2024-01-10T07:40:36;103432.06;;;-5.70;88.11
83633;BME280;73595;53.084;6.696;2024-01-10T07:43:03;103418.31;;;-5.77;88.05
83633;BME280;73595;53.084;6.696;2024-01-10T07:45:29;103373.59;;;-6.01;88.42
83633;BME280;73595;53.084;6.696;2024-01-10T07:47:54;103419.16;;;-5.70;88.26
83633;BME280;73595;53.084;6.696;2024-01-10T07:50:20;103397.63;;;-5.80;88.13
83633;BME280;73595;53.084;6.696;2024-01-10T07:52:46;103413.16;;;-5.73;87.96
83633;BME280;73595;53.084;6.696;2024-01-10T07:55:11;103386.50;;;-5.91;88.49
83633;BME280;73595;53.084;6.696;2024-01-10T07:57:37;103396.78;;;-5.82;87.82
83633;BME280;73595;53.084;6.696;2024-01-10T08:00:06;103406.25;;;-5.78;88.03
83633;BME280;73595;53.084;6.696;2024-01-10T08:02:35;103422.59;;;-5.76;88.28
83633;BME280;73595;53.084;6.696;2024-01-10T08:05:02;103380.47;;;-5.93;88.22
83633;BME280;73595;53.084;6.696;2024-01-10T08:07:31;103393.38;;;-5.93;88.83
83633;BME280;73595;53.084;6.696;2024-01-10T08:09:58;103426.91;;;-5.78;88.77
83633;BME280;73595;53.084;6.696;2024-01-10T08:12:24;103435.47;;;-5.67;88.13
83633;BME280;73595;53.084;6.696;2024-01-10T08:14:49;103432.06;;;-5.75;87.96
83633;BME280;73595;53.084;6.696;2024-01-10T08:17:15;103402.78;;;-5.86;87.83
83633;BME280;73595;53.084;6.696;2024-01-10T08:19:41;103432.03;;;-5.67;88.27
83633;BME280;73595;53.084;6.696;2024-01-10T08:22:06;103422.56;;;-5.62;88.29
83633;BME280;73595;53.084;6.696;2024-01-10T08:24:33;103418.28;;;-5.59;87.99
83633;BME280;73595;53.084;6.696;2024-01-10T08:26:58;103396.75;;;-5.68;88.00
83633;BME280;73595;53.084;6.696;2024-01-10T08:29:23;103425.16;;;-5.52;87.79
83633;BME280;73595;53.084;6.696;2024-01-10T08:31:55;103413.97;;;-5.58;87.81
83633;BME280;73595;53.084;6.696;2024-01-10T08:34:22;103419.97;;;-5.55;87.88
83633;BME280;73595;53.084;6.696;2024-01-10T08:36:47;103440.63;;;-5.36;87.56
83633;BME280;73595;53.084;6.696;2024-01-10T08:39:16;103397.59;;;-5.56;87.29
83633;BME280;73595;53.084;6.696;2024-01-10T08:41:43;103431.09;;;-5.28;87.27
83633;BME280;73595;53.084;6.696;2024-01-10T08:44:10;103421.66;;;-5.32;86.87
83633;BME280;73595;53.084;6.696;2024-01-10T08:46:36;103427.69;;;-5.26;86.96
83633;BME280;73595;53.084;6.696;2024-01-10T08:49:01;103425.09;;;-5.21;86.42
83633;BME280;73595;53.084;6.696;2024-01-10T08:51:30;103416.50;;;-5.26;85.70
83633;BME280;73595;53.084;6.696;2024-01-10T08:53:56;103389.81;;;-5.33;85.58
83633;BME280;73595;53.084;6.696;2024-01-10T08:56:22;103411.31;;;-5.20;85.57
83633;BME280;73595;53.084;6.696;2024-01-10T08:58:48;103381.19;;;-5.32;84.87
83633;BME280;73595;53.084;6.696;2024-01-10T09:01:13;103414.69;;;-5.07;84.89
83633;BME280;73595;53.084;6.696;2024-01-10T09:03:38;103379.41;;;-5.22;84.21
83633;BME280;73595;53.084;6.696;2024-01-10T09:06:04;103372.56;;;-5.22;84.96
83633;BME280;73595;53.084;6.696;2024-01-10T09:08:30;103403.47;;;-5.03;84.75
83633;BME280;73595;53.084;6.696;2024-01-10T09:10:55;103382.84;;;-5.15;84.78
83633;BME280;73595;53.084;6.696;2024-01-10T09:13:21;103392.28;;;-5.05;85.03
83633;BME280;73595;53.084;6.696;2024-01-10T09:15:46;103406.03;;;-4.93;84.48
83633;BME280;73595;53.084;6.696;2024-01-10T09:18:11;103405.13;;;-4.87;85.00
83633;BME280;73595;53.084;6.696;2024-01-10T09:20:37;103409.44;;;-4.83;84.58
83633;BME280;73595;53.084;6.696;2024-01-10T09:23:03;103425.75;;;-4.69;84.15
83633;BME280;73595;53.084;6.696;2024-01-10T09:25:29;103417.97;;;-4.67;83.96
83633;BME280;73595;53.084;6.696;2024-01-10T09:27:55;103422.25;;;-4.66;83.94
83633;BME280;73595;53.084;6.696;2024-01-10T09:30:20;103396.47;;;-4.75;83.49
83633;BME280;73595;53.084;6.696;2024-01-10T09:32:46;103422.25;;;-4.63;84.01
83633;BME280;73595;53.084;6.696;2024-01-10T09:35:13;103435.09;;;-4.48;83.69
83633;BME280;73595;53.084;6.696;2024-01-10T09:37:39;103422.19;;;-4.49;83.53
83633;BME280;73595;53.084;6.696;2024-01-10T09:40:05;103434.19;;;-4.39;83.04
83633;BME280;73595;53.084;6.696;2024-01-10T09:42:33;103377.41;;;-4.65;82.72
83633;BME280;73595;53.084;6.696;2024-01-10T09:45:00;103420.31;;;-4.32;82.78
83633;BME280;73595;53.084;6.696;2024-01-10T09:47:27;103416.84;;;-4.25;82.60
83633;BME280;73595;53.084;6.696;2024-01-10T09:49:52;103417.66;;;-4.18;81.20
83633;BME280;73595;53.084;6.696;2024-01-10T09:52:25;103390.97;;;-4.28;81.21
83633;BME280;73595;53.084;6.696;2024-01-10T09:54:54;103422.81;;;-4.12;80.34
83633;BME280;73595;53.084;6.696;2024-01-10T09:57:19;103334.31;;;-4.61;80.34
83633;BME280;73595;53.084;6.696;2024-01-10T09:59:47;103412.38;;;-4.07;80.01
83633;BME280;73595;53.084;6.696;2024-01-10T10:02:13;103317.88;;;-4.54;79.61
83633;BME280;73595;53.084;6.696;2024-01-10T10:04:54;103397.69;;;-4.02;80.46
83633;BME280;73595;53.084;6.696;2024-01-10T10:07:21;103403.69;;;-3.97;79.43
83633;BME280;73595;53.084;6.696;2024-01-10T10:09:50;103401.84;;;-3.88;79.49
83633;BME280;73595;53.084;6.696;2024-01-10T10:12:15;103379.53;;;-3.98;78.36
83633;BME280;73595;53.084;6.696;2024-01-10T10:14:41;103403.47;;;-3.74;79.50
83633;BME280;73595;53.084;6.696;2024-01-10T10:17:16;103396.59;;;-3.77;78.19
83633;BME280;73595;53.084;6.696;2024-01-10T10:19:44;103412.00;;;-3.60;78.32
83633;BME280;73595;53.084;6.696;2024-01-10T10:22:10;103415.38;;;-3.55;78.65
83633;BME280;73595;53.084;6.696;2024-01-10T10:24:36;103415.38;;;-3.53;77.33
83633;BME280;73595;53.084;6.696;2024-01-10T10:27:07;103392.94;;;-3.58;77.69
83633;BME280;73595;53.084;6.696;2024-01-10T10:29:33;103352.56;;;-3.77;76.87
83633;BME280;73595;53.084;6.696;2024-01-10T10:32:00;103410.91;;;-3.39;76.14
83633;BME280;73595;53.084;6.696;2024-01-10T10:34:31;103405.56;;;-3.25;76.77
83633;BME280;73595;53.084;6.696;2024-01-10T10:37:00;103401.22;;;-3.23;75.84
83633;BME280;73595;53.084;6.696;2024-01-10T10:39:26;103388.22;;;-3.20;75.18
83633;BME280;73595;53.084;6.696;2024-01-10T10:41:51;103409.59;;;-3.02;75.35
83633;BME280;73595;53.084;6.696;2024-01-10T10:44:18;103389.84;;;-3.12;73.54
83633;BME280;73595;53.084;6.696;2024-01-10T10:46:52;103389.69;;;-3.00;74.38
83633;BME280;73595;53.084;6.696;2024-01-10T10:49:19;103406.88;;;-2.91;73.27
83633;BME280;73595;53.084;6.696;2024-01-10T10:51:49;103385.28;;;-2.93;74.15
83633;BME280;73595;53.084;6.696;2024-01-10T10:54:16;103378.38;;;-2.94;73.25
83633;BME280;73595;53.084;6.696;2024-01-10T10:56:44;103383.34;;;-2.79;71.10
83633;BME280;73595;53.084;6.696;2024-01-10T10:59:10;103378.16;;;-2.76;70.09
83633;BME280;73595;53.084;6.696;2024-01-10T11:01:38;103409.88;;;-2.57;70.47
83633;BME280;73595;53.084;6.696;2024-01-10T11:04:05;103396.88;;;-2.55;70.03
83633;BME280;73595;53.084;6.696;2024-01-10T11:06:31;103387.31;;;-2.53;70.06
83633;BME280;73595;53.084;6.696;2024-01-10T11:09:04;103356.41;;;-2.68;68.90
83633;BME280;73595;53.084;6.696;2024-01-10T11:14:41;103406.75;;;-2.22;68.80
83633;BME280;73595;53.084;6.696;2024-01-10T11:22:48;103380.00;;;-2.25;67.83
83633;BME280;73595;53.084;6.696;2024-01-10T11:25:17;103398.75;;;-2.08;67.57
83633;BME280;73595;53.084;6.696;2024-01-10T11:27:44;103372.78;;;-2.08;68.65
83633;BME280;73595;53.084;6.696;2024-01-10T11:30:11;103387.50;;;-2.08;65.22
83633;BME280;73595;53.084;6.696;2024-01-10T11:32:37;103380.53;;;-2.05;64.55
83633;BME280;73595;53.084;6.696;2024-01-10T11:35:12;103391.53;;;-1.91;66.71
83633;BME280;73595;53.084;6.696;2024-01-10T11:37:44;103368.22;;;-1.95;67.91
83633;BME280;73595;53.084;6.696;2024-01-10T11:40:10;103383.56;;;-1.80;66.24
83633;BME280;73595;53.084;6.696;2024-01-10T11:42:44;103370.72;;;-1.89;65.03
83633;BME280;73595;53.084;6.696;2024-01-10T11:45:35;103367.88;;;-1.74;63.82
83633;BME280;73595;53.084;6.696;2024-01-10T11:48:01;103346.44;;;-1.88;64.42
83633;BME280;73595;53.084;6.696;2024-01-10T11:50:29;103351.38;;;-1.74;64.40
83633;BME280;73595;53.084;6.696;2024-01-10T11:52:56;103359.00;;;-1.64;66.66
83633;BME280;73595;53.084;6.696;2024-01-10T11:55:46;103371.69;;;-1.48;67.26
83633;BME280;73595;53.084;6.696;2024-01-10T11:58:12;103331.34;;;-1.66;65.00
83633;BME280;73595;53.084;6.696;2024-01-10T12:00:38;103362.19;;;-1.48;64.20
83633;BME280;73595;53.084;6.696;2024-01-10T12:03:04;103331.38;;;-1.69;64.28
83633;BME280;73595;53.084;6.696;2024-01-10T12:05:29;103369.88;;;-1.43;64.88
83633;BME280;73595;53.084;6.696;2024-01-10T12:07:55;103359.47;;;-1.42;64.74
83633;BME280;73595;53.084;6.696;2024-01-10T12:10:20;103351.75;;;-1.46;63.80
83633;BME280;73595;53.084;6.696;2024-01-10T12:12:46;103327.75;;;-1.60;62.81
83633;BME280;73595;53.084;6.696;2024-01-10T12:15:11;103332.69;;;-1.48;63.31
83633;BME280;73595;53.084;6.696;2024-01-10T12:17:37;103309.53;;;-1.59;63.61
83633;BME280;73595;53.084;6.696;2024-01-10T12:20:02;103317.09;;;-1.47;63.66
83633;BME280;73595;53.084;6.696;2024-01-10T12:22:28;103341.94;;;-1.33;63.52
83633;BME280;73595;53.084;6.696;2024-01-10T12:24:53;103339.03;;;-1.18;62.98
83633;BME280;73595;53.084;6.696;2024-01-10T12:27:20;103339.72;;;-1.10;64.32
83633;BME280;73595;53.084;6.696;2024-01-10T12:29:49;103347.38;;;-1.02;63.62
83633;BME280;73595;53.084;6.696;2024-01-10T12:32:17;103333.66;;;-1.11;62.49
83633;BME280;73595;53.084;6.696;2024-01-10T12:34:43;103326.88;;;-1.18;64.26
83633;BME280;73595;53.084;6.696;2024-01-10T12:37:10;103326.81;;;-1.15;62.36
83633;BME280;73595;53.084;6.696;2024-01-10T12:39:37;103286.38;;;-1.28;63.47
83633;BME280;73595;53.084;6.696;2024-01-10T12:42:04;103327.41;;;-1.02;62.16
83633;BME280;73595;53.084;6.696;2024-01-10T12:44:30;103333.47;;;-1.01;62.49
83633;BME280;73595;53.084;6.696;2024-01-10T12:46:55;103330.78;;;-0.98;62.32
83633;BME280;73595;53.084;6.696;2024-01-10T12:49:22;103278.31;;;-1.16;62.17
83633;BME280;73595;53.084;6.696;2024-01-10T12:51:48;103321.09;;;-0.92;61.92
83633;BME280;73595;53.084;6.696;2024-01-10T12:54:15;103239.44;;;-1.23;62.78
83633;BME280;73595;53.084;6.696;2024-01-10T12:56:41;103272.06;;;-1.10;62.61